Aviation Digital Data Service (ADDS)

Output produced by METARs form (1819 UTC 24 November 2017)
found at http://www.aviationweather.gov/adds/metars/
 
KDUJ 241753Z AUTO 21010G17KT 10SM CLR 08/M08 A2989 RMK AO2 SLP133 T00781078 10078 21028 58022
KDUJ 241653Z AUTO 23010KT 10SM CLR 06/M07 A2991 RMK AO2 SLP143 T00611067
KDUJ 241553Z AUTO 22011KT 10SM CLR 04/M06 A2994 RMK AO2 SLP154 T00441056
KDUJ 241453Z AUTO 20008KT 10SM CLR 03/M06 A2996 RMK AO2 SLP159 T00281056 58001
KDUJ 241353Z AUTO 20005KT 10SM CLR 01/M06 A2996 RMK AO2 SLP162 T00061061
KDUJ 241253Z AUTO 19003KT 10SM CLR M02/M07 A2997 RMK AO2 SLP166 T10171067
KDUJ 241153Z AUTO 20003KT 10SM CLR M02/M07 A2996 RMK AO2 SLP165 T10221072 10000 21033 50004
KDUJ 241053Z AUTO 20003KT 10SM CLR M03/M07 A2996 RMK AO2 SLP166 T10281072
KDUJ 240953Z AUTO 00000KT 10SM CLR M02/M07 A2996 RMK AO2 SLP162 T10221072
KDUJ 240853Z AUTO 24005KT 10SM CLR M02/M07 A2995 RMK AO2 SLP158 T10221072 58009
KDUJ 240753Z AUTO 23006KT 10SM CLR M02/M07 A2996 RMK AO2 SLP162 T10171067
KDUJ 240653Z AUTO 24006KT 10SM FEW042 M01/M07 A2997 RMK AO2 SLP167 T10111067
KDUJ 240553Z AUTO 23006KT 10SM OVC048 M01/M06 A2998 RMK AO2 SLP168 T10111061 10000 21022 58001
KDUJ 240453Z AUTO 23005KT 10SM OVC048 M01/M06 A2998 RMK AO2 SLP170 T10061061 400111028
KDUJ 240353Z AUTO 24008KT 10SM BKN038 M01/M07 A2998 RMK AO2 SLP169 T10061067
KDUJ 240253Z AUTO 24005KT 10SM OVC050 00/M06 A2998 RMK AO2 SLP171 T00001061 51006
KDUJ 240153Z AUTO 23004KT 10SM OVC050 M01/M07 A2998 RMK AO2 SLP169 T10061067
KDUJ 240053Z AUTO 23004KT 10SM BKN050 M01/M07 A2997 RMK AO2 SLP169 T10111072
KDUJ 232353Z AUTO 23004KT 10SM SCT090 M01/M07 A2996 RMK AO2 SLP165 T10111072 10011 21011 56005
KDUJ 232253Z AUTO 23004KT 10SM OVC095 M01/M07 A2996 RMK AO2 SLP166 T10061067
KDUJ 232153Z AUTO 21003KT 10SM BKN100 M01/M08 A2995 RMK AO2 SLP162 T10061078
KDUJ 232053Z AUTO 20006KT 10SM OVC100 01/M07 A2997 RMK AO2 SLP168 T00111072 56014
KDUJ 231953Z AUTO 21008KT 10SM OVC100 00/M07 A2998 RMK AO2 SLP171 T00001072
KDUJ 231853Z AUTO 23008KT 10SM FEW090 00/M08 A2999 RMK AO2 SLP176 T00001078
KDUJ 231753Z AUTO 26010KT 10SM OVC085 M01/M08 A3002 RMK AO2 SLP184 T10061078 10000 21028 58021
KDUJ 231653Z AUTO VRB03KT 10SM FEW027 OVC090 M01/M08 A3004 RMK AO2 SLP191 T10061078
KDUJ 231553Z AUTO 27005KT 10SM FEW100 M02/M08 A3007 RMK AO2 SLP204 T10171078
KDUJ 231453Z AUTO 27007KT 10SM CLR M02/M08 A3008 RMK AO2 SLP208 T10221078 55003
KDUJ 231353Z AUTO 26005KT 10SM SCT023 M02/M08 A3008 RMK AO2 SLP207 T10221078
KDUJ 231344Z AUTO 26007KT 10SM SCT025 M02/M08 A3008 RMK AO2 T10221078
KDUJ 231253Z AUTO 26006KT 10SM OVC024 M03/M08 A3008 RMK AO2 SLP207 T10281078
KDUJ 231153Z AUTO 28006KT 10SM OVC022 M03/M08 A3009 RMK AO2 SLP211 T10281078 11022 21028 56002
KDUJ 231053Z AUTO 28005KT 10SM OVC020 M03/M07 A3009 RMK AO2 SLP212 T10281072
KDUJ 230953Z AUTO 32005KT 10SM OVC021 M02/M08 A3009 RMK AO2 SLP210 T10221078
KDUJ 230853Z AUTO 31004KT 10SM OVC025 M02/M08 A3010 RMK AO2 SLP212 T10221078 58005
KDUJ 230753Z AUTO 32006KT 10SM OVC023 M02/M08 A3011 RMK AO2 SLP217 T10221078
KDUJ 230653Z AUTO 31006KT 10SM OVC023 M02/M08 A3011 RMK AO2 SLP215 T10221078